Loading...
 

Haapiti

Localisation
Haapiti is located on the West coast of Moorea island, in the Society Archipelago. 
The Polynesia Mana transects are at -12 meters depth on the outer slope.
17°33.906'S / 149°53.216'W (conversion DM/DMS)

The multiparameter probe SB16, initially set up near the passe at -65m, is now located in the passe at -14m, since July 2010.
17°32.614'S/149°54.720'W (conversion DM/DMS)


Programs
The Polynesia Mana since 1995
The MPA since 2004 with the MPA Tetaiuo and Taohata (black dots on the map) and the MTA Gendron and Haapiti (green dots)
The Recrutement de coraux since 2000 (yellow dot on the map)

Icon Corail 35px The analysis of the coral cover is done using three methods:
Photo-quadrat coral transect
Underwater seascape photography. You can access the and the photo quadrats
PIT transect for MPA substrate cover
Artificial substrat and transect (RC). Here are the data

Icon Poisson 35px The fish are estimated using:
an ichtyological assessment for Polynesia Mana program. Here are the data
the MPA fish assessment

Icon Vague 80px Physico-chemical parameters
The temperature, conductivity, salinity, pH, oxygen and dissolved oxygen are recorded using the multiparameter probe SB16
Here are the data

Quadrat n°10 on the outer slope of Moorea Haapiti, in 2016/CRIOBE

Historique Haapiti (Moorea)
Données brutes de suivi des équipements. Les dates affichées correspondent à la date de modification du fichier informatique en laboratoire.

DateDepartureArrivalInstrument
2013-01-14 13:09:51CRIOBE > MooreaCRIOBE > HaapitiSBE5P Pompe 6097
2013-01-14 13:14:23CRIOBE > MooreaCRIOBE > HaapitiSBE43 Oxygen 1612
2013-01-14 13:14:52CRIOBE > MooreaCRIOBE > HaapitiSBE18 pH 0696
2013-01-14 13:15:11CRIOBE > MooreaCRIOBE > HaapitiFLNTUS fluo turb 1936
2013-01-14 15:08:14CRIOBE > HaapitiCRIOBE > MooreaFLNTUS fluo turb 1936
2013-01-31 08:27:14CRIOBE > MooreaCRIOBE > HaapitiSBE16plusV2 6051
2013-05-21 11:31:52CRIOBE > MooreaCRIOBE > HaapitiSBE18 pH 0683
2013-05-21 11:32:34CRIOBE > MooreaCRIOBE > HaapitiSBE43 Oxygen 1610
2013-05-21 11:33:18CRIOBE > MooreaCRIOBE > HaapitiSBE5P Pompe 5210
2013-05-21 11:33:50CRIOBE > MooreaCRIOBE > HaapitiSBE16plusV2 6052
2013-05-23 18:21:16CRIOBE > HaapitiCRIOBE > MooreaSBE43 Oxygen 1612
2013-05-23 18:21:28CRIOBE > HaapitiCRIOBE > MooreaSBE18 pH 0696
2013-05-23 18:22:04CRIOBE > HaapitiCRIOBE > MooreaSBE16plusV2 6051
2013-05-23 18:22:18CRIOBE > HaapitiCRIOBE > MooreaSBE5P Pompe 6097
2013-10-14 08:56:15CRIOBE > MooreaCRIOBE > HaapitiSBE5P Pompe 5040
2013-10-14 08:57:51CRIOBE > MooreaCRIOBE > HaapitiSBE16plusV2 6158
2013-10-14 09:02:01CRIOBE > MooreaCRIOBE > HaapitiSBE18 pH 0700
2013-10-14 09:02:10CRIOBE > MooreaCRIOBE > HaapitiSBE43 Oxygen 1612
2013-10-18 11:32:16CRIOBE > HaapitiCRIOBE > MooreaSBE16plusV2 6052
2013-10-18 11:33:28CRIOBE > HaapitiCRIOBE > MooreaSBE18 pH 0683
2013-10-18 11:34:11CRIOBE > HaapitiCRIOBE > MooreaSBE43 Oxygen 1610
2013-10-18 11:35:11CRIOBE > HaapitiCRIOBE > MooreaSBE5P Pompe 5210
2014-04-04 02:52:55CRIOBE > MooreaCRIOBE > HaapitiSBE18 pH 0655
2014-04-04 02:56:29CRIOBE > MooreaCRIOBE > HaapitiSBE43 Oxygen 1611
2014-04-04 03:00:07CRIOBE > MooreaCRIOBE > HaapitiSBE5P Pompe 5673
2014-04-16 03:22:15CRIOBE > MooreaCRIOBE > HaapitiSBE16plusV2 6051
2014-04-16 03:23:20CRIOBE > MooreaCRIOBE > HaapitiFLNTUS fluo turb 1936
2014-05-01 02:49:05CRIOBE > HaapitiCRIOBE > MooreaSBE5P Pompe 5040
2014-05-01 02:49:52CRIOBE > HaapitiCRIOBE > MooreaSBE18 pH 0700
2014-05-01 02:49:59CRIOBE > HaapitiCRIOBE > MooreaSBE43 Oxygen 1612
2014-05-01 02:50:32CRIOBE > HaapitiCRIOBE > MooreaSBE16plusV2 6158
2014-11-06 02:27:39CRIOBE > MooreaCRIOBE > HaapitiSBE18 pH 0664
2014-11-06 02:30:51CRIOBE > MooreaCRIOBE > HaapitiSBE16plusV2 6052
2014-11-10 23:15:52CRIOBE > MooreaCRIOBE > HaapitiSBE43 Oxygen 1868
2014-11-10 23:17:07CRIOBE > MooreaCRIOBE > HaapitiSBE5P Pompe 5219
2014-11-10 23:18:36CRIOBE > HaapitiCRIOBE > MooreaFLNTUS fluo turb 1936
2014-11-10 23:19:02CRIOBE > HaapitiCRIOBE > MooreaSBE16plusV2 6051
2014-11-10 23:19:10CRIOBE > HaapitiCRIOBE > MooreaSBE18 pH 0655
2014-11-10 23:19:19CRIOBE > HaapitiCRIOBE > MooreaSBE43 Oxygen 1611
2014-11-10 23:19:29CRIOBE > HaapitiCRIOBE > MooreaSBE5P Pompe 5673
2015-03-31 22:21:54CRIOBE > MooreaCRIOBE > HaapitiSBE18 pH 0656
2015-03-31 22:22:45CRIOBE > MooreaCRIOBE > HaapitiSBE43 Oxygen 1612
2015-04-01 21:04:42CRIOBE > MooreaCRIOBE > HaapitiSBE16plusV2 6051
2015-04-01 21:06:45CRIOBE > MooreaCRIOBE > HaapitiSBE5P Pompe 5673
2015-04-17 01:24:28CRIOBE > HaapitiCRIOBE > MooreaSBE16plusV2 6052
2015-04-17 01:25:08CRIOBE > HaapitiCRIOBE > MooreaSBE43 Oxygen 1868
2015-04-17 01:25:22CRIOBE > HaapitiCRIOBE > MooreaSBE5P Pompe 5219
2015-04-19 00:38:31CRIOBE > HaapitiCRIOBE > MooreaSBE18 pH 0664
2015-09-09 21:14:50CRIOBE > MooreaCRIOBE > HaapitiSBE16plusV2 6052
2015-09-09 21:28:07CRIOBE > MooreaCRIOBE > HaapitiSBE18 pH 0778
2015-09-09 21:39:20CRIOBE > MooreaCRIOBE > HaapitiSBE5P Pompe 5210
2015-09-09 21:39:37CRIOBE > MooreaCRIOBE > HaapitiSBE43 Oxygen 1864
2015-09-09 23:45:47CRIOBE > HaapitiCRIOBE > MooreaSBE43 Oxygen 1864
2015-09-09 23:46:25CRIOBE > MooreaCRIOBE > HaapitiSBE43 Oxygen 1611
2015-09-23 02:11:57CRIOBE > HaapitiCRIOBE > MooreaSBE16plusV2 6051
2015-09-23 02:12:17CRIOBE > HaapitiCRIOBE > MooreaSBE18 pH 0656
2015-09-23 02:12:24CRIOBE > HaapitiCRIOBE > MooreaSBE43 Oxygen 1612
2015-09-23 02:12:34CRIOBE > HaapitiCRIOBE > MooreaSBE5P Pompe 5673
2016-05-18 03:21:52CRIOBE > Moorea > CRIOBECRIOBE > HaapitiSBE16plusV2 6595
2016-05-21 23:09:20CRIOBE > MooreaCRIOBE > HaapitiSBE43 Oxygen 1868
2016-05-21 23:23:51CRIOBE > MooreaCRIOBE > HaapitiSBE18 pH 0700
2016-06-01 01:34:54CRIOBE > HaapitiCRIOBE > Moorea > CRIOBESBE16plusV2 6052
2016-06-01 01:35:02CRIOBE > HaapitiCRIOBE > Moorea > CRIOBESBE18 pH 0778
2016-06-01 01:35:12CRIOBE > HaapitiCRIOBE > Moorea > CRIOBESBE43 Oxygen 1611
2016-07-22 23:56:37CRIOBE > Moorea > CRIOBECRIOBE > HaapitiSBE43 Oxygen 1612
2016-07-22 23:56:44CRIOBE > Moorea > Moorea Pointe SudCRIOBE > HaapitiFLNTUS fluo turb 1916
2016-07-22 23:56:50CRIOBE > Moorea > Moorea Pointe SudCRIOBE > HaapitiSBE5P Pompe 5219
2016-07-22 23:56:57CRIOBE > Moorea > CRIOBECRIOBE > HaapitiSBE18 pH 0656
2016-07-22 23:57:07CRIOBE > Moorea > CRIOBECRIOBE > HaapitiSBE16plusV2 6052
2016-07-22 23:57:20CRIOBE > HaapitiCRIOBE > PapeeteSBE16plusV2 6052
2016-07-22 23:57:26CRIOBE > HaapitiCRIOBE > PapeeteSBE18 pH 0656
2016-07-22 23:57:33CRIOBE > HaapitiCRIOBE > PapeeteSBE43 Oxygen 1612
2016-07-22 23:57:40CRIOBE > HaapitiCRIOBE > PapeeteFLNTUS fluo turb 1916
2016-07-22 23:57:46CRIOBE > HaapitiCRIOBE > PapeeteSBE5P Pompe 5219
2016-11-22 01:29:38CRIOBE > Haapiti (10)CRIOBE > Moorea > CRIOBE (33)SBE16plusV2 6595
2016-11-22 01:34:18CRIOBE > Haapiti (10)CRIOBE > Moorea > CRIOBE (33)SBE18 pH 0700
2016-11-22 01:34:47CRIOBE > Haapiti (10)CRIOBE > Moorea > CRIOBE (33)SBE43 Oxygen 1868
2016-11-22 01:35:27CRIOBE > Haapiti (10)CRIOBE > Moorea > CRIOBE (33)SBE5P Pompe 5210
2017-05-11 00:55:37CRIOBE > Moorea > CRIOBE (33)CRIOBE > Haapiti (10)SBE5P Pompe 6097
2017-05-11 00:55:51CRIOBE > Moorea > CRIOBE (33)CRIOBE > Haapiti (10)SBE16plusV2 6595
2017-05-11 00:56:09CRIOBE > Moorea > CRIOBE (33)CRIOBE > Haapiti (10)SBE18 pH 0696
2017-05-11 00:56:25CRIOBE > Moorea > CRIOBE (33)CRIOBE > Haapiti (10)SBE43 Oxygen 1409
2017-09-19 03:22:37CRIOBE > Moorea > CRIOBE (33)CRIOBE > Haapiti (10)SBE18 pH 0655
2017-09-19 03:23:05CRIOBE > Moorea > CRIOBE (33)CRIOBE > Haapiti (10)SBE16plusV2 6052
2017-09-19 03:23:23CRIOBE > Moorea > CRIOBE (33)CRIOBE > Haapiti (10)SBE43 Oxygen 1610
2017-09-19 03:23:30CRIOBE > Moorea > CRIOBE (33)CRIOBE > Haapiti (10)SBE5P Pompe 5219
2017-09-22 01:49:16CRIOBE > Haapiti (10)CRIOBE > Moorea > CRIOBE (33)SBE18 pH 0696
2017-09-22 01:49:29CRIOBE > Haapiti (10)CRIOBE > Moorea > CRIOBE (33)SBE5P Pompe 6097
2017-09-22 01:49:41CRIOBE > Haapiti (10)CRIOBE > Moorea > CRIOBE (33)SBE16plusV2 6595
2018-02-09 21:04:16CRIOBE > Haapiti (10)CRIOBE > Moorea > CRIOBE (33)SBE43 Oxygen 1409
2018-04-11 03:46:23CRIOBE > Moorea > CRIOBE (33)CRIOBE > Haapiti (10)SBE18 pH 0778
2018-04-11 03:46:28CRIOBE > Moorea > CRIOBE (33)CRIOBE > Haapiti (10)SBE43 Oxygen 1611
2018-04-11 03:46:32CRIOBE > Moorea > CRIOBE (33)CRIOBE > Haapiti (10)SBE16plusV2 6595
2018-05-02 20:55:49CRIOBE > Haapiti (10)CRIOBE > Moorea > CRIOBE (33)SBE18 pH 0655
2018-05-02 20:56:03CRIOBE > Haapiti (10)CRIOBE > Moorea > CRIOBE (33)SBE43 Oxygen 1610
2018-05-02 20:56:16CRIOBE > Haapiti (10)CRIOBE > Moorea > CRIOBE (33)SBE5P Pompe 5219
2018-05-02 20:56:32CRIOBE > Haapiti (10)CRIOBE > Moorea > CRIOBE (33)SBE16plusV2 6052
2018-10-05 21:47:21CRIOBE > Moorea > CRIOBE (33)CRIOBE > Haapiti (10)SBE43 Oxygen 1408
2018-10-05 21:49:27CRIOBE > Moorea > CRIOBE (33)CRIOBE > Haapiti (10)SBE18 pH 0656
2018-10-05 21:51:15CRIOBE > Moorea > CRIOBE (33)CRIOBE > Haapiti (10)SBE16plusV2 6052
2018-10-30 22:55:37CRIOBE > Moorea > CRIOBE (33)CRIOBE > Haapiti (10)SBE5P Pompe 5219
2018-11-01 02:51:47CRIOBE > Haapiti (10)CRIOBE > Moorea > CRIOBE (33)SBE18 pH 0778
2018-11-01 02:52:01CRIOBE > Haapiti (10)CRIOBE > Moorea > CRIOBE (33)SBE16plusV2 6595
2018-11-01 02:52:30CRIOBE > Haapiti (10)CRIOBE > Moorea > CRIOBE (33)SBE43 Oxygen 1611
2019-08-23 02:44:37CRIOBE > Haapiti (10)CRIOBE (2)SBE16plusV2 6052
2019-08-23 02:46:13CRIOBE > Haapiti (10)CRIOBE (2)SBE18 pH 0656
2019-08-23 02:47:02CRIOBE > Haapiti (10)CRIOBE (2)SBE43 Oxygen 1408
2019-08-23 02:47:55CRIOBE > Haapiti (10)CRIOBE > Moorea > CRIOBE (33)SBE5P Pompe 5219
2019-08-23 03:07:26CRIOBE > Moorea > CRIOBE (33)CRIOBE > Haapiti (10)SBE43 Oxygen 1409
2019-08-23 03:08:20CRIOBE > Moorea > CRIOBE (33)CRIOBE > Haapiti (10)SBE18 pH 0784
2019-08-23 03:08:56CRIOBE > Moorea > CRIOBE (33)CRIOBE > Haapiti (10)SBE16plusV2 6052



blog mission
Retrait de la sonde en novembre 2016
gsiu Thursday December 15, 2016

Attention !

Entre le 31 mai 12:01:04 et le 17 novembre 09:01:04 (inclus), cette sonde a eu des problèmes de capteur de température. Tous les paramètres ont donc dus être corrigés. La température relevée était 2,5°C trop élevée. Nous avons ... <more>

Calendar

1)  2019-10-21
Tonga et Samoa
2)  2019-11-26
Mangareva